createdAt,value
2019-03-18T00:02:30.665Z,2.20
2019-03-18T00:05:00.785Z,2.35
2019-03-18T00:07:30.992Z,1.77
2019-03-18T00:10:01.044Z,1.45
2019-03-18T00:12:31.064Z,2.02
2019-03-18T00:15:02.268Z,1.98
2019-03-18T00:17:33.667Z,4.78
2019-03-18T00:20:07.453Z,2.90
2019-03-18T00:22:37.700Z,1.72
2019-03-18T00:25:08.026Z,1.47
2019-03-18T00:27:38.370Z,1.67
2019-03-18T00:30:10.795Z,1.85
2019-03-18T00:32:41.006Z,1.72
2019-03-18T00:35:12.992Z,1.85
2019-03-18T00:37:43.165Z,3.02
2019-03-18T00:40:13.884Z,2.62
2019-03-18T00:42:43.943Z,3.45
2019-03-18T00:45:16.214Z,2.40
2019-03-18T00:47:46.352Z,2.40
2019-03-18T00:50:16.592Z,1.95
2019-03-18T00:52:46.709Z,1.92
2019-03-18T00:55:17.736Z,2.80
2019-03-18T00:57:48.518Z,2.75
2019-03-18T01:00:18.708Z,2.05
2019-03-18T01:02:49.717Z,2.08
2019-03-18T01:05:20.335Z,8.50
2019-03-18T01:07:50.265Z,2.60
2019-03-18T01:10:20.262Z,2.25
2019-03-18T01:12:50.286Z,1.98
2019-03-18T01:15:27.913Z,2.45
2019-03-18T01:17:51.968Z,2.20
2019-03-18T01:20:22.131Z,3.45
2019-03-18T01:22:52.079Z,2.02
2019-03-18T01:25:22.114Z,3.08
2019-03-18T01:27:52.237Z,1.77
2019-03-18T01:30:22.547Z,3.35
2019-03-18T01:32:52.512Z,5.10
2019-03-18T01:35:22.634Z,1.95
2019-03-18T01:37:52.746Z,2.58
2019-03-18T01:40:22.822Z,5.30
2019-03-18T01:42:52.823Z,3.17
2019-03-18T01:45:22.950Z,7.15
2019-03-18T01:47:53.239Z,2.98
2019-03-18T01:50:23.313Z,5.05
2019-03-18T01:52:53.303Z,7.25
2019-03-18T01:55:23.328Z,4.40
2019-03-18T01:57:53.481Z,2.77
2019-03-18T02:00:23.671Z,5.85
2019-03-18T02:02:53.790Z,6.58
2019-03-18T02:05:24.945Z,3.92
2019-03-18T02:07:54.928Z,4.35
2019-03-18T02:10:24.925Z,2.02
2019-03-18T02:12:54.944Z,3.20
2019-03-18T02:15:24.952Z,2.27
2019-03-18T02:17:55.004Z,2.20
2019-03-18T02:20:26.190Z,5.97
2019-03-18T02:22:56.317Z,2.15
2019-03-18T02:25:26.421Z,3.22
2019-03-18T02:27:56.560Z,3.27
2019-03-18T02:30:26.543Z,3.12
2019-03-18T02:32:56.570Z,2.02
2019-03-18T02:35:26.688Z,2.35
2019-03-18T02:37:58.029Z,4.05
2019-03-18T02:40:27.986Z,2.83
2019-03-18T02:42:59.995Z,4.12
2019-03-18T02:45:29.988Z,5.15
2019-03-18T02:47:59.954Z,3.52
2019-03-18T02:50:30.088Z,10.48
2019-03-18T02:53:00.083Z,9.80
2019-03-18T02:55:30.115Z,5.60
2019-03-18T02:58:00.023Z,6.75
2019-03-18T03:00:29.901Z,5.17
2019-03-18T03:02:59.883Z,6.85
2019-03-18T03:05:30.599Z,5.65
2019-03-18T03:08:00.627Z,7.45
2019-03-18T03:10:30.537Z,5.60
2019-03-18T03:13:00.711Z,5.62
2019-03-18T03:15:30.734Z,4.35
2019-03-18T03:18:00.739Z,6.53
2019-03-18T03:20:30.653Z,9.90
2019-03-18T03:23:00.670Z,4.12
2019-03-18T03:25:30.600Z,3.25
2019-03-18T03:28:00.626Z,6.87
2019-03-18T03:30:30.534Z,4.95
2019-03-18T03:33:00.583Z,4.50
2019-03-18T03:35:30.576Z,3.98
2019-03-18T03:38:00.757Z,6.47
2019-03-18T03:40:30.838Z,6.10
2019-03-18T03:43:01.102Z,8.05
2019-03-18T03:45:31.063Z,7.47
2019-03-18T03:48:03.026Z,5.87
2019-03-18T03:50:33.080Z,7.37
2019-03-18T03:53:03.044Z,6.60
2019-03-18T03:55:33.168Z,6.25
2019-03-18T03:58:03.168Z,4.45
2019-03-18T04:00:33.280Z,4.10
2019-03-18T04:03:03.283Z,4.35
2019-03-18T04:05:33.359Z,10.55
2019-03-18T04:08:03.353Z,5.80
2019-03-18T04:10:33.375Z,6.28
2019-03-18T04:13:03.474Z,8.88
2019-03-18T04:15:33.471Z,6.75
2019-03-18T04:18:03.457Z,6.50
2019-03-18T04:20:33.547Z,5.50
2019-03-18T04:23:03.524Z,5.50
2019-03-18T04:25:33.599Z,8.10
2019-03-18T04:28:03.599Z,9.35
2019-03-18T04:30:33.816Z,5.17
2019-03-18T04:33:05.025Z,4.58
2019-03-18T04:35:35.115Z,7.45
2019-03-18T04:38:05.233Z,5.17
2019-03-18T04:40:35.321Z,8.45
2019-03-18T04:43:05.477Z,5.90
2019-03-18T04:45:35.688Z,5.70
2019-03-18T04:48:05.747Z,7.17
2019-03-18T04:50:35.803Z,7.08
2019-03-18T04:53:05.813Z,5.92
2019-03-18T04:55:35.781Z,8.15
2019-03-18T04:58:05.868Z,7.90
2019-03-18T05:00:35.940Z,8.33
2019-03-18T05:03:06.075Z,7.08
2019-03-18T05:05:36.109Z,6.70
2019-03-18T05:08:06.307Z,8.18
2019-03-18T05:10:36.379Z,12.03
2019-03-18T05:13:06.465Z,9.05
2019-03-18T05:15:36.501Z,9.35
2019-03-18T05:18:06.588Z,11.20
2019-03-18T05:20:36.695Z,8.08
2019-03-18T05:23:06.888Z,9.23
2019-03-18T05:25:37.469Z,6.97
2019-03-18T05:28:07.488Z,7.78
2019-03-18T05:30:37.527Z,10.65
2019-03-18T05:33:07.696Z,7.90
2019-03-18T05:35:37.739Z,13.00
2019-03-18T05:38:07.895Z,11.63
2019-03-18T05:40:37.929Z,7.20
2019-03-18T05:43:10.521Z,12.58
2019-03-18T05:45:40.701Z,8.53
2019-03-18T05:48:10.981Z,10.03
2019-03-18T05:50:41.168Z,10.40
2019-03-18T05:53:11.261Z,8.33
2019-03-18T05:55:41.463Z,9.88
2019-03-18T05:58:11.762Z,13.03
2019-03-18T06:00:41.901Z,10.58
2019-03-18T06:03:11.995Z,9.83
2019-03-18T06:05:41.991Z,8.80
2019-03-18T06:08:12.121Z,7.62
2019-03-18T06:10:42.126Z,12.88
2019-03-18T06:13:14.974Z,12.40
2019-03-18T06:15:44.918Z,11.33
2019-03-18T06:18:15.066Z,10.38
2019-03-18T06:20:45.170Z,8.13
2019-03-18T06:23:15.287Z,8.65
2019-03-18T06:25:45.245Z,8.73
2019-03-18T06:28:15.304Z,8.93
2019-03-18T06:30:45.452Z,11.15
2019-03-18T06:33:15.520Z,11.08
2019-03-18T06:35:45.496Z,9.68
2019-03-18T06:38:15.578Z,8.65
2019-03-18T06:40:47.056Z,8.18
2019-03-18T06:43:18.580Z,12.85
2019-03-18T06:45:48.835Z,10.43
2019-03-18T06:48:18.984Z,13.45
2019-03-18T06:50:50.752Z,9.30
2019-03-18T06:53:20.751Z,8.15
2019-03-18T06:55:50.877Z,10.98
2019-03-18T06:58:20.931Z,11.10
2019-03-18T07:00:51.055Z,8.40
2019-03-18T07:03:21.103Z,18.80
2019-03-18T07:05:51.087Z,11.35
2019-03-18T07:08:21.192Z,9.18
2019-03-18T07:10:53.394Z,14.10
2019-03-18T07:13:22.848Z,9.78
2019-03-18T07:15:53.015Z,9.60
2019-03-18T07:18:23.105Z,9.50
2019-03-18T07:20:53.123Z,6.70
2019-03-18T07:23:23.264Z,8.38
2019-03-18T07:25:53.419Z,7.20
2019-03-18T07:28:23.428Z,9.60
2019-03-18T07:30:53.385Z,9.15
2019-03-18T07:33:24.637Z,10.10
2019-03-18T07:35:55.908Z,8.88
2019-03-18T07:38:26.021Z,8.38
2019-03-18T07:40:56.260Z,11.75
2019-03-18T07:43:26.548Z,7.90
2019-03-18T07:45:56.673Z,11.22
2019-03-18T07:48:31.402Z,7.25
2019-03-18T07:50:58.552Z,12.88
2019-03-18T07:53:28.657Z,12.10
2019-03-18T07:55:59.679Z,12.00
2019-03-18T07:58:29.774Z,11.85
2019-03-18T08:00:59.972Z,8.95
2019-03-18T08:03:30.114Z,10.32
2019-03-18T08:06:00.738Z,10.32
2019-03-18T08:08:30.762Z,6.10
2019-03-18T08:11:01.069Z,5.80
2019-03-18T08:13:32.849Z,7.25
2019-03-18T08:16:03.140Z,7.40
2019-03-18T08:18:43.054Z,5.40
2019-03-18T08:21:08.173Z,6.58
2019-03-18T08:23:50.014Z,6.12
2019-03-18T08:26:20.335Z,6.85
2019-03-18T08:28:50.580Z,11.00
2019-03-18T08:31:20.838Z,8.78
2019-03-18T08:33:51.194Z,6.90
2019-03-18T08:36:21.303Z,4.72
2019-03-18T08:38:51.366Z,6.78
2019-03-18T08:41:21.479Z,9.75
2019-03-18T08:43:51.613Z,11.38
2019-03-18T08:46:21.924Z,4.37
2019-03-18T08:48:56.014Z,5.70
2019-03-18T08:51:23.743Z,5.22
2019-03-18T08:53:53.919Z,6.35
2019-03-18T08:56:24.922Z,4.15
2019-03-18T08:58:55.167Z,6.92
2019-03-18T09:01:33.479Z,2.98
2019-03-18T09:04:05.306Z,3.95
2019-03-18T09:06:35.529Z,5.97
2019-03-18T09:09:08.162Z,5.55
2019-03-18T09:11:38.492Z,8.33
2019-03-18T09:14:08.729Z,6.80
2019-03-18T09:16:38.814Z,9.78
2019-03-18T09:19:09.401Z,7.20
2019-03-18T09:21:40.794Z,6.60
2019-03-18T09:24:10.957Z,8.70
2019-03-18T09:26:41.184Z,7.50
2019-03-18T09:29:11.309Z,9.10
2019-03-18T09:31:42.747Z,11.75
2019-03-18T09:34:12.929Z,3.92
2019-03-18T09:36:43.144Z,11.22
2019-03-18T09:39:13.283Z,4.83
2019-03-18T09:41:44.310Z,6.22
2019-03-18T09:44:14.405Z,8.28
2019-03-18T09:46:44.413Z,8.73
2019-03-18T09:49:21.732Z,10.53
2019-03-18T09:51:46.517Z,6.08
2019-03-18T09:54:16.794Z,5.60
2019-03-18T09:56:47.171Z,8.65
2019-03-18T09:59:18.250Z,10.85
2019-03-18T10:01:50.382Z,9.13
2019-03-18T10:04:20.353Z,6.37
2019-03-18T10:06:50.425Z,6.30
2019-03-18T10:09:20.724Z,7.78
2019-03-18T10:11:50.702Z,7.65
2019-03-18T10:14:20.832Z,6.83
2019-03-18T10:16:53.079Z,7.55
2019-03-18T10:19:33.050Z,5.90
2019-03-18T10:21:54.998Z,6.78
2019-03-18T10:24:25.174Z,13.68
2019-03-18T10:26:55.414Z,8.73
2019-03-18T10:29:25.519Z,7.62
2019-03-18T10:31:55.689Z,6.53
2019-03-18T10:34:26.020Z,5.70
2019-03-18T10:36:56.053Z,6.53
2019-03-18T10:39:26.067Z,4.85
2019-03-18T10:41:56.124Z,4.90
2019-03-18T10:44:26.445Z,4.75
2019-03-18T10:46:56.556Z,8.13
2019-03-18T10:49:26.637Z,7.08
2019-03-18T10:51:56.767Z,6.35
2019-03-18T10:54:31.164Z,6.08
2019-03-18T10:56:58.503Z,7.67
2019-03-18T10:59:28.604Z,4.95
2019-03-18T11:01:58.684Z,9.53
2019-03-18T11:04:28.733Z,6.37
2019-03-18T11:06:59.146Z,5.45
2019-03-18T11:09:29.231Z,6.20
2019-03-18T11:11:59.269Z,6.67
2019-03-18T11:14:29.353Z,7.08
2019-03-18T11:16:59.324Z,7.83
2019-03-18T11:19:29.406Z,10.28
2019-03-18T11:21:59.425Z,6.53
2019-03-18T11:24:29.539Z,6.17
2019-03-18T11:26:59.665Z,3.83
2019-03-18T11:29:29.662Z,4.92
2019-03-18T11:31:59.620Z,5.22
2019-03-18T11:34:29.843Z,5.90
2019-03-18T11:36:59.803Z,7.12
2019-03-18T11:39:29.963Z,6.90
2019-03-18T11:42:00.050Z,8.98
2019-03-18T11:44:30.095Z,7.03
2019-03-18T11:47:00.104Z,6.47
2019-03-18T11:49:39.070Z,6.92
2019-03-18T11:52:01.952Z,6.45
2019-03-18T11:54:32.564Z,5.72
2019-03-18T11:57:02.802Z,5.33
2019-03-18T11:59:32.971Z,6.50
2019-03-18T12:02:03.128Z,6.20
2019-03-18T12:04:33.116Z,5.85
2019-03-18T12:07:03.374Z,4.67
2019-03-18T12:09:33.509Z,6.58
2019-03-18T12:12:03.584Z,3.70
2019-03-18T12:14:33.644Z,9.53
2019-03-18T12:17:03.621Z,7.80
2019-03-18T12:19:33.617Z,7.67
2019-03-18T12:22:03.628Z,7.80
2019-03-18T12:24:34.175Z,7.08
2019-03-18T12:27:05.447Z,6.65
2019-03-18T12:29:35.504Z,6.80
2019-03-18T12:32:05.798Z,5.67
2019-03-18T12:34:35.868Z,7.00
2019-03-18T12:37:06.002Z,8.55
2019-03-18T12:39:36.040Z,5.08
2019-03-18T12:42:06.148Z,8.38
2019-03-18T12:44:36.303Z,6.03
2019-03-18T12:47:06.784Z,5.15
2019-03-18T12:49:36.908Z,5.12
2019-03-18T12:52:07.182Z,5.15
2019-03-18T12:54:37.238Z,5.50
2019-03-18T12:57:07.326Z,5.05
2019-03-18T12:59:37.417Z,4.37
2019-03-18T13:02:07.515Z,6.05
2019-03-18T13:04:37.686Z,5.70
2019-03-18T13:07:08.128Z,6.83
2019-03-18T13:09:38.368Z,5.95
2019-03-18T13:12:09.504Z,6.15
2019-03-18T13:14:39.548Z,4.37
2019-03-18T13:17:10.011Z,4.42
2019-03-18T13:19:40.432Z,4.83
2019-03-18T13:22:11.151Z,7.65
2019-03-18T13:24:42.896Z,8.60
2019-03-18T13:27:16.583Z,8.40
2019-03-18T13:29:46.674Z,6.80
2019-03-18T13:32:16.664Z,5.00
2019-03-18T13:34:46.784Z,5.08
2019-03-18T13:37:16.838Z,3.90
2019-03-18T13:39:46.913Z,5.58
2019-03-18T13:42:16.880Z,6.35
2019-03-18T13:44:46.986Z,5.75
2019-03-18T13:47:16.982Z,5.60
2019-03-18T13:49:47.044Z,5.20
2019-03-18T13:52:17.145Z,9.90
2019-03-18T13:54:47.241Z,5.33
2019-03-18T13:57:17.411Z,9.95
2019-03-18T13:59:47.505Z,4.25
2019-03-18T14:02:17.721Z,5.60
2019-03-18T14:04:47.895Z,5.97
2019-03-18T14:07:18.164Z,3.62
2019-03-18T14:09:48.185Z,3.75
2019-03-18T14:12:18.338Z,4.40
2019-03-18T14:14:48.875Z,3.85
2019-03-18T14:17:20.984Z,7.87
2019-03-18T14:19:53.670Z,4.78
2019-03-18T14:22:24.966Z,3.87
2019-03-18T14:24:54.961Z,5.28
2019-03-18T14:27:25.199Z,3.85
2019-03-18T14:29:55.264Z,4.62
2019-03-18T14:32:25.579Z,4.10
2019-03-18T14:34:55.704Z,3.08
2019-03-18T14:37:25.769Z,3.25
2019-03-18T14:39:58.102Z,5.22
2019-03-18T14:42:33.100Z,7.28
2019-03-18T14:45:05.981Z,4.83
2019-03-18T14:47:37.633Z,6.12
2019-03-18T14:50:08.229Z,4.22
2019-03-18T14:52:39.472Z,3.15
2019-03-18T14:55:10.311Z,5.30
2019-03-18T14:57:40.568Z,3.50
2019-03-18T15:00:15.098Z,5.40
2019-03-18T15:02:45.435Z,2.40
2019-03-18T15:05:15.850Z,4.03
2019-03-18T15:07:45.895Z,6.22
2019-03-18T15:10:16.212Z,5.05
2019-03-18T15:12:46.473Z,8.85
2019-03-18T15:15:18.235Z,3.10
2019-03-18T15:17:48.501Z,4.30
2019-03-18T15:20:18.708Z,4.95
2019-03-18T15:22:48.974Z,5.78
2019-03-18T15:25:20.510Z,4.25
2019-03-18T15:27:50.745Z,5.10
2019-03-18T15:30:24.658Z,2.22
2019-03-18T15:32:55.071Z,3.45
2019-03-18T15:35:25.181Z,4.30
2019-03-18T15:38:03.222Z,5.50
2019-03-18T15:40:33.437Z,4.83
2019-03-18T15:43:07.935Z,5.80
2019-03-18T15:45:43.778Z,6.65
2019-03-18T15:48:14.314Z,4.97
2019-03-18T15:50:44.646Z,5.22
2019-03-18T15:53:14.878Z,2.80
2019-03-18T15:55:45.174Z,3.37
2019-03-18T15:58:16.980Z,5.12
2019-03-18T16:00:47.364Z,5.83
2019-03-18T16:03:17.513Z,5.25
2019-03-18T16:05:47.508Z,3.77
2019-03-18T16:08:17.566Z,3.90
2019-03-18T16:10:47.605Z,3.75
2019-03-18T16:13:18.009Z,13.03
2019-03-18T16:15:48.399Z,5.35
2019-03-18T16:18:18.657Z,8.35
2019-03-18T16:20:48.629Z,6.20
2019-03-18T16:23:18.692Z,7.53
2019-03-18T16:25:49.361Z,11.20
2019-03-18T16:28:19.414Z,9.70
2019-03-18T16:30:49.403Z,4.67
2019-03-18T16:33:19.371Z,5.50
2019-03-18T16:41:01.199Z,10.10
2019-03-18T16:43:41.062Z,6.33
2019-03-18T16:46:11.213Z,8.60
2019-03-18T16:48:41.400Z,21.93
2019-03-18T16:51:11.591Z,17.05
2019-03-18T16:53:41.900Z,11.97
2019-03-18T16:56:12.071Z,8.43
2019-03-18T16:58:43.397Z,11.28
2019-03-18T17:01:21.652Z,12.33
2019-03-18T17:04:22.095Z,14.47
2019-03-18T17:07:18.514Z,31.97
2019-03-18T17:09:52.161Z,21.25
2019-03-18T17:12:22.882Z,27.35
2019-03-18T17:15:06.030Z,32.78
2019-03-18T17:17:47.030Z,31.95
2019-03-18T17:20:27.252Z,26.90
2019-03-18T17:23:16.394Z,17.57
2019-03-18T17:26:21.276Z,16.15
2019-03-18T17:29:04.482Z,25.57
2019-03-18T17:31:45.562Z,19.45
2019-03-18T17:34:17.099Z,27.87
2019-03-18T17:37:06.959Z,17.57
2019-03-18T17:40:10.071Z,17.73
2019-03-18T17:43:04.390Z,22.27
2019-03-18T17:46:13.001Z,32.00
2019-03-18T17:49:32.642Z,39.05
2019-03-18T17:52:30.758Z,37.58
2019-03-18T17:55:06.697Z,26.95
2019-03-18T17:58:21.352Z,24.70
2019-03-18T18:01:05.139Z,36.10
2019-03-18T18:03:55.421Z,43.83
2019-03-18T18:06:31.414Z,43.28
2019-03-18T18:12:23.343Z,50.58
2019-03-18T18:15:04.335Z,32.98
2019-03-18T18:17:44.350Z,37.93
2019-03-18T18:20:16.536Z,30.65
2019-03-18T18:22:52.684Z,31.90
2019-03-18T18:25:25.488Z,34.18
2019-03-18T18:28:05.638Z,30.00
2019-03-18T18:30:41.473Z,27.48
2019-03-18T18:33:24.220Z,30.15
2019-03-18T18:39:25.685Z,25.37
2019-03-18T18:42:10.414Z,26.87
2019-03-18T18:44:41.398Z,30.72
2019-03-18T18:47:30.641Z,25.92
2019-03-18T18:50:02.140Z,27.80
2019-03-18T18:52:37.646Z,28.62
2019-03-18T18:55:15.498Z,30.20
2019-03-18T18:57:45.778Z,33.02
2019-03-18T19:00:51.864Z,23.62
2019-03-18T19:03:22.117Z,36.88
2019-03-18T19:05:52.609Z,34.55
2019-03-18T19:08:22.910Z,44.95
2019-03-18T19:10:54.816Z,36.48
2019-03-18T19:13:27.311Z,28.20
2019-03-18T19:15:57.530Z,29.48
2019-03-18T19:18:37.594Z,30.82
2019-03-18T19:21:04.110Z,28.43
2019-03-18T19:23:38.054Z,32.88
2019-03-18T19:26:06.627Z,31.65
2019-03-18T19:28:37.159Z,30.25
2019-03-18T19:31:07.276Z,27.03
2019-03-18T19:33:38.632Z,31.45
2019-03-18T19:36:09.191Z,28.65
2019-03-18T19:38:39.508Z,24.07
2019-03-18T19:41:20.634Z,21.25
2019-03-18T19:44:26.647Z,20.08
2019-03-18T19:47:17.072Z,19.52
2019-03-18T19:50:06.345Z,25.82
2019-03-18T19:53:04.221Z,26.48
2019-03-18T19:56:00.404Z,25.43
2019-03-18T19:58:43.973Z,24.30
2019-03-18T20:01:42.059Z,26.27
2019-03-18T20:04:33.232Z,20.97
2019-03-18T20:07:15.169Z,33.40
2019-03-18T20:10:03.446Z,22.15
2019-03-18T20:12:45.735Z,26.45
2019-03-18T20:15:22.909Z,27.67
2019-03-18T20:18:13.275Z,27.90
2019-03-18T20:21:14.579Z,24.72
2019-03-18T20:24:00.969Z,29.87
2019-03-18T20:27:10.400Z,28.50
2019-03-18T20:33:12.300Z,34.20
2019-03-18T20:38:43.592Z,27.95
2019-03-18T20:41:26.800Z,34.23
2019-03-18T20:44:08.907Z,21.77
2019-03-18T20:46:59.739Z,27.50
2019-03-18T20:49:45.755Z,29.80
2019-03-18T20:52:20.643Z,27.45
2019-03-18T20:55:09.913Z,29.92
2019-03-18T20:57:43.296Z,31.85
2019-03-18T21:00:15.576Z,36.03
2019-03-18T21:02:46.037Z,38.25
2019-03-18T21:05:16.532Z,32.05
2019-03-18T21:07:46.945Z,33.20
2019-03-18T21:10:17.325Z,35.25
2019-03-18T21:12:50.272Z,46.77
2019-03-18T21:15:25.213Z,49.37
2019-03-18T21:17:55.883Z,35.60
2019-03-18T21:20:26.364Z,29.82
2019-03-18T21:22:56.681Z,31.27
2019-03-18T21:25:26.954Z,26.42
2019-03-18T21:28:09.184Z,25.25
2019-03-18T21:30:39.508Z,28.52
2019-03-18T21:33:09.898Z,29.70
2019-03-18T21:35:40.329Z,22.70
2019-03-18T21:38:10.669Z,24.20
2019-03-18T21:40:41.156Z,23.05
2019-03-18T21:43:11.338Z,26.25
2019-03-18T21:45:41.626Z,23.07
2019-03-18T21:48:11.844Z,28.13
2019-03-18T21:50:41.922Z,19.63
2019-03-18T21:53:12.172Z,30.92
2019-03-18T21:55:42.405Z,25.67
2019-03-18T21:58:15.217Z,20.90
2019-03-18T22:00:45.536Z,28.00
2019-03-18T22:03:15.974Z,22.20
2019-03-18T22:05:46.225Z,23.35
2019-03-18T22:08:17.858Z,20.57
2019-03-18T22:10:48.022Z,21.37
2019-03-18T22:13:18.147Z,25.92
2019-03-18T22:15:51.625Z,24.77
2019-03-18T22:18:21.834Z,26.87
2019-03-18T22:20:52.103Z,21.67
2019-03-18T22:23:23.030Z,21.27
2019-03-18T22:25:53.123Z,25.90
2019-03-18T22:28:23.144Z,20.33
2019-03-18T22:30:53.261Z,31.37
2019-03-18T22:33:23.363Z,19.52
2019-03-18T22:35:53.593Z,21.45
2019-03-18T22:38:24.095Z,24.67
2019-03-18T22:40:54.338Z,20.13
2019-03-18T22:43:24.526Z,27.27
2019-03-18T22:45:55.889Z,17.35
2019-03-18T22:48:26.128Z,26.05
2019-03-18T22:50:56.506Z,22.90
2019-03-18T22:53:28.310Z,28.90
2019-03-18T22:55:58.608Z,25.95
2019-03-18T22:58:28.642Z,21.27
2019-03-18T23:01:10.092Z,29.03
2019-03-18T23:03:40.258Z,26.45
2019-03-18T23:06:10.464Z,22.95
2019-03-18T23:08:40.755Z,27.52
2019-03-18T23:11:10.995Z,27.53
2019-03-18T23:13:41.094Z,29.13
2019-03-18T23:16:11.184Z,30.73
2019-03-18T23:18:41.440Z,26.60
2019-03-18T23:21:11.631Z,20.50
2019-03-18T23:23:41.594Z,26.47
2019-03-18T23:26:11.819Z,29.48
2019-03-18T23:28:41.845Z,28.25
2019-03-18T23:31:11.958Z,25.77
2019-03-18T23:33:42.256Z,25.33
2019-03-18T23:36:12.405Z,27.80
2019-03-18T23:38:42.536Z,28.33
2019-03-18T23:41:13.898Z,20.85
2019-03-18T23:43:44.036Z,25.13
2019-03-18T23:46:14.306Z,31.73
2019-03-18T23:48:44.345Z,18.97
2019-03-18T23:51:15.861Z,22.00
2019-03-18T23:53:45.897Z,23.60
2019-03-18T23:56:15.932Z,21.67
2019-03-18T23:58:46.166Z,25.30
